Not logged in
PANGAEA.
Data Publisher for Earth & Environmental Science

Vuilleumier, Laurent (2008): Radiosonde measurements from station Payerne (2008-01) [dataset]. Swiss Meteorological Agency, Payerne, PANGAEA, https://doi.org/10.1594/PANGAEA.707738

Always quote citation above when using data! You can download the citation in several formats below.

Published: 2008-11-19DOI registered: 2008-12-17

RIS CitationBibTeX Citation ShareShow MapGoogle Earth

Other version:
Vuilleumier, Laurent (2008): BSRN Station-to-archive file for station Payerne (2008-01) [dataset]. ftp://ftp.bsrn.awi.de/pay/pay0108.dat.gz
Coverage:
Latitude: 46.812300 * Longitude: 6.942200
Date/Time Start: 2008-01-01T00:00:00 * Date/Time End: 2008-01-31T12:00:00
Minimum ALTITUDE: 491 m * Maximum ALTITUDE: 35372 m
Event(s):
PAY (Payerne) * Latitude: 46.812300 * Longitude: 6.942200 * Date/Time: 1992-09-01T00:00:00 * Elevation: 491.0 m * Location: Switzerland * Method/Device: Monitoring station (MONS) * Comment: BSRN station no: 21; Surface type: cultivated; Topography type: hilly, rural; Horizon: doi:10.1594/PANGAEA.947035; Station scientist: Laurent Vuilleumier (laurent.vuilleumier@meteoswiss.ch)
Comment:
Location: Arosa, Switzerland; Distance from radiation site: 200 km
Parameter(s):
#NameShort NameUnitPrincipal InvestigatorMethod/DeviceComment
DATE/TIMEDate/TimeGeocode
ALTITUDEAltitudemGeocode
Pressure, at given altitudePPPPhPaVuilleumier, LaurentRadiosonde, METEOLABOR AG, SRSCH
Temperature, airTTT°CVuilleumier, LaurentRadiosonde, METEOLABOR AG, SRSCH
Dew/frost pointTdTdTd°CVuilleumier, LaurentRadiosonde, METEOLABOR AG, SRSCH
Wind directiondddegVuilleumier, LaurentRadiosonde, METEOLABOR AG, SRSCH
Wind speedffm/sVuilleumier, LaurentRadiosonde, METEOLABOR AG, SRSCH
Ozone, partial pressurepO3mPaVuilleumier, LaurentRadiosonde, METEOLABOR AG, SRSCH
Size:
321881 data points

Data

Download dataset as tab-delimited text — use the following character encoding:


Date/Time

Altitude [m]

PPPP [hPa]

TTT [°C]

TdTdTd [°C]

dd [deg]

ff [m/s]

pO3 [mPa]
2008-01-01T00:00491968-0.8-2.5492
2008-01-01T00:00501966-0.4-2.2
2008-01-01T00:00510965-0.4-2.3
2008-01-01T00:00515965-0.5-2.5
2008-01-01T00:00529963-0.4-2.4
2008-01-01T00:00530963-0.4-2.4
2008-01-01T00:00531963-0.4-2.4414
2008-01-01T00:00532963-0.4-2.4
2008-01-01T00:00533962-0.4-2.4
2008-01-01T00:00534962-0.5-2.4
2008-01-01T00:00543961-0.5-2.4404
2008-01-01T00:00545961-0.5-2.4
2008-01-01T00:00556960-0.4-2.2
2008-01-01T00:00561959-0.6-2.4
2008-01-01T00:00587956-0.3-2.1
2008-01-01T00:00593955-0.3-2.1464
2008-01-01T00:00598955-0.3-2.0
2008-01-01T00:00604954-0.2-2.0
2008-01-01T00:006249520.1-1.9
2008-01-01T00:006349500.2-2.0
2008-01-01T00:006389500.2-2.2
2008-01-01T00:006439490.2-2.2515
2008-01-01T00:006629470.3-2.5
2008-01-01T00:006719460.4-2.6
2008-01-01T00:006769450.3-2.7
2008-01-01T00:006919440.2-3.0536
2008-01-01T00:007019420.2-3.2
2008-01-01T00:007139410.1-3.4
2008-01-01T00:007199400.1-3.5
2008-01-01T00:007399380.2-3.5
2008-01-01T00:007439370.2-3.6547
2008-01-01T00:007529360.1-3.8
2008-01-01T00:00756936-0.1-4.0
2008-01-01T00:00775934-0.2-4.2
2008-01-01T00:007869320.1-4.0
2008-01-01T00:007929320.0-4.2558
2008-01-01T00:008179290.0-4.5
2008-01-01T00:00826928-0.1-4.6
2008-01-01T00:00831927-0.1-4.7
2008-01-01T00:00839926-0.2-4.9559
2008-01-01T00:00851925-0.2-5.2
2008-01-01T00:00853925-0.2-5.2
2008-01-01T00:00861924-0.2-5.4
2008-01-01T00:00865923-0.3-5.6
2008-01-01T00:00884921-0.4-5.9569
2008-01-01T00:00889921-0.4-6.0
2008-01-01T00:00900919-0.4-6.2
2008-01-01T00:00905919-0.5-6.3
2008-01-01T00:00923917-0.7-6.4
2008-01-01T00:00931916-0.7-6.55510
2008-01-01T00:00934915-0.7-6.5
2008-01-01T00:00938915-0.8-6.6
2008-01-01T00:00955913-1.0-6.7
2008-01-01T00:00969911-1.0-6.8
2008-01-01T00:00974911-1.1-6.95610
2008-01-01T00:00991909-1.3-6.9
2008-01-01T00:00998908-1.3-6.9
2008-01-01T00:001002908-1.4-7.0
2008-01-01T00:001014906-1.5-7.05610
2008-01-01T00:001022905-1.5-7.0
2008-01-01T00:001030904-1.5-7.1
2008-01-01T00:001034904-1.6-7.2
2008-01-01T00:001055902-1.8-7.35611
2008-01-01T00:001062901-1.8-7.4
2008-01-01T00:001065900-1.9-7.5
2008-01-01T00:001069900-1.9-7.6
2008-01-01T00:001085898-2.0-7.7
2008-01-01T00:001094897-2.0-7.85711
2008-01-01T00:001099897-2.1-7.9
2008-01-01T00:001119894-2.1-8.1
2008-01-01T00:001127894-2.1-8.1
2008-01-01T00:001131893-2.2-8.2
2008-01-01T00:001135893-2.2-8.35811
2008-01-01T00:001153891-2.3-8.5
2008-01-01T00:001165889-2.2-8.6
2008-01-01T00:001171889-2.3-8.7
2008-01-01T00:001186887-2.4-8.85811
2008-01-01T00:001195886-2.5-8.8
2008-01-01T00:001202885-2.5-8.7
2008-01-01T00:001205885-2.5-8.7
2008-01-01T00:001226882-2.4-8.95910
2008-01-01T00:001237881-2.2-8.8
2008-01-01T00:001242881-2.3-8.9
2008-01-01T00:001262878-2.2-9.1
2008-01-01T00:001270878-2.2-9.3
2008-01-01T00:001274877-2.3-9.45910
2008-01-01T00:001295875-2.4-9.5
2008-01-01T00:001303874-2.4-9.5
2008-01-01T00:001307873-2.5-9.6
2008-01-01T00:001315873-2.6-9.65910
2008-01-01T00:001326871-2.7-9.7
2008-01-01T00:001332871-2.7-9.7
2008-01-01T00:001336870-2.8-9.8
2008-01-01T00:001352868-2.9-9.95810
2008-01-01T00:001357868-3.0-9.9
2008-01-01T00:001368867-3.0-10.0
2008-01-01T00:001374866-3.1-10.1
2008-01-01T00:001399863-3.3-10.1
2008-01-01T00:001403863-3.3-10.15810
2008-01-01T00:001406863-3.4-10.1
2008-01-01T00:001410862-3.5-10.2
2008-01-01T00:001431860-3.7-10.3
2008-01-01T00:001439859-3.7-10.3
2008-01-01T00:001444858-3.8-10.45711
2008-01-01T00:001467856-4.0-10.4
2008-01-01T00:001477855-4.1-10.5
2008-01-01T00:001482854-4.2-10.5
2008-01-01T00:001492853-4.2-10.55611
2008-01-01T00:001506852-4.3-10.6
2008-01-01T00:001515851-4.4-10.6
2008-01-01T00:001519850-4.5-10.7
2008-01-01T00:001522850-4.5-10.7
2008-01-01T00:001536848-4.7-10.75611
2008-01-01T00:001540848-4.7-10.7
2008-01-01T00:001548847-4.7-10.7
2008-01-01T00:001552847-4.8-10.8
2008-01-01T00:001574844-5.0-10.9
2008-01-01T00:001580844-5.0-10.95610
2008-01-01T00:001585843-5.1-10.9
2008-01-01T00:001590843-5.2-11.0
2008-01-01T00:001614840-5.3-11.1
2008-01-01T00:001622839-5.3-11.0
2008-01-01T00:001626839-5.5-11.15610
2008-01-01T00:001645837-5.6-11.1
2008-01-01T00:001653836-5.6-11.1
2008-01-01T00:001656836-5.7-11.1
2008-01-01T00:001664835-5.8-11.1569
2008-01-01T00:001675834-5.8-11.0
2008-01-01T00:001682833-5.9-11.0
2008-01-01T00:001686832-5.9-11.0
2008-01-01T00:001704831-6.0-10.9579
2008-01-01T00:001720829-6.1-10.8
2008-01-01T00:001725828-6.2-10.9
2008-01-01T00:001746826-6.2-10.8
2008-01-01T00:001757825-6.1-10.7588
2008-01-01T00:001762824-6.1-10.7
2008-01-01T00:001767824-6.2-10.8
2008-01-01T00:001785822-6.1-10.9
2008-01-01T00:001792821-5.9-10.9
2008-01-01T00:001795821-6.0-11.1
2008-01-01T00:001799820-6.0-11.1587
2008-01-01T00:001816819-5.8-11.4
2008-01-01T00:001827818-5.7-11.6
2008-01-01T00:001833817-5.7-11.8
2008-01-01T00:001847816-5.6-12.1576
2008-01-01T00:001856815-5.6-12.3
2008-01-01T00:001862814-5.5-12.5
2008-01-01T00:001865814-5.5-12.7
2008-01-01T00:001885812-5.1-13.1535
2008-01-01T00:001896810-5.0-13.2
2008-01-01T00:001902810-5.0-13.4
2008-01-01T00:001929807-5.0-14.2
2008-01-01T00:001940806-4.9-14.5473
2008-01-01T00:001946805-5.0-14.8
2008-01-01T00:001975802-4.8-15.6
2008-01-01T00:001988801-4.2-15.5
2008-01-01T00:001994800-4.1-15.7
2008-01-01T00:001998800-3.9-15.7
2008-01-01T00:002000800-3.8-15.8372
2008-01-01T00:002020798-2.5-16.1
2008-01-01T00:002030797-2.2-17.2
2008-01-01T00:002033796-2.3-17.7
2008-01-01T00:002041796-2.4-18.0252
2008-01-01T00:002053794-2.5-18.4
2008-01-01T00:002065793-2.5-18.5
2008-01-01T00:002070793-2.6-18.6
2008-01-01T00:002091791-2.6-18.8192
2008-01-01T00:002096790-2.6-18.8
2008-01-01T00:002105789-2.7-18.9
2008-01-01T00:002110789-2.8-19.0
2008-01-01T00:002132787-2.9-19.3
2008-01-01T00:002137786-2.9-19.4222
2008-01-01T00:002141786-3.0-19.4
2008-01-01T00:002146785-3.0-19.6
2008-01-01T00:002166783-3.2-19.9
2008-01-01T00:002173782-3.2-19.9
2008-01-01T00:002177782-3.3-20.0282
2008-01-01T00:002197780-3.4-20.2
2008-01-01T00:002207779-3.2-20.2
2008-01-01T00:002212779-3.3-20.3
2008-01-01T00:002220778-3.4-20.4313
2008-01-01T00:002233777-3.5-20.5
2008-01-01T00:002239776-3.5-20.6
2008-01-01T00:002243776-3.6-20.7
2008-01-01T00:002259774-3.5-20.7303
2008-01-01T00:002263774-3.5-20.7
2008-01-01T00:002273773-3.5-20.7
2008-01-01T00:002278772-3.6-20.8
2008-01-01T00:002300770-3.7-21.0
2008-01-01T00:002303770-3.7-20.9283
2008-01-01T00:002309769-3.7-20.9
2008-01-01T00:002312769-3.8-21.0
2008-01-01T00:002332767-3.8-21.1
2008-01-01T00:002343766-3.8-21.1233
2008-01-01T00:002348765-3.9-21.2
2008-01-01T00:002372763-4.0-21.3
2008-01-01T00:002381762-4.1-21.3
2008-01-01T00:002385762-4.1-21.4
2008-01-01T00:002389761-4.2-21.4183
2008-01-01T00:002407760-4.2-21.4
2008-01-01T00:002417759-4.1-21.4
2008-01-01T00:002422758-4.2-21.5
2008-01-01T00:002435757-4.3-21.5124
2008-01-01T00:002444756-4.4-21.6
2008-01-01T00:002451755-4.4-21.6
2008-01-01T00:002455755-4.5-21.6
2008-01-01T00:002475753-4.6-21.794
2008-01-01T00:002483752-4.6-21.8
2008-01-01T00:002487752-4.7-21.8
2008-01-01T00:002508750-4.8-21.9
2008-01-01T00:002516749-4.8-21.965
2008-01-01T00:002520749-4.9-21.9
2008-01-01T00:002542747-4.8-21.8
2008-01-01T00:002556745-4.8-21.7
2008-01-01T00:002561745-4.7-21.647
2008-01-01T00:002584743-4.3-21.2
2008-01-01T00:002593742-4.2-21.2
2008-01-01T00:002598741-4.3-21.2
2008-01-01T00:002607741-4.3-21.328
2008-01-01T00:002620739-4.3-21.4
2008-01-01T00:002630738-4.1-21.2
2008-01-01T00:002634738-4.1-21.2
2008-01-01T00:002652736-4.2-21.219
2008-01-01T00:002656736-4.2-21.3
2008-01-01T00:002664735-4.1-21.2
2008-01-01T00:002668735-4.2-21.3
2008-01-01T00:002689733-4.2-21.3
2008-01-01T00:002694732-4.1-21.309
2008-01-01T00:002699732-4.1-21.3
2008-01-01T00:002703732-4.2-21.4
2008-01-01T00:002726729-4.3-21.5
2008-01-01T00:002734729-4.3-21.5
2008-01-01T00:002739728-4.3-21.53599
2008-01-01T00:002758727-4.3-21.5
2008-01-01T00:002764726-4.3-21.5
2008-01-01T00:002767726-4.4-21.5
2008-01-01T00:002775725-4.4-21.63599
2008-01-01T00:002787724-4.5-21.7
2008-01-01T00:002798723-4.6-21.8
2008-01-01T00:002804722-4.6-21.8
2008-01-01T00:002823721-4.8-21.93589
2008-01-01T00:002827720-4.8-22.0
2008-01-01T00:002837719-4.8-22.0
2008-01-01T00:002841719-4.9-22.1
2008-01-01T00:002861717-5.1-22.23579
2008-01-01T00:002872716-5.1-22.2
2008-01-01T00:002877716-5.1-22.2
2008-01-01T00:002898714-5.3-22.4
2008-01-01T00:002904713-5.3-22.43559
2008-01-01T00:002907713-5.4-22.5
2008-01-01T00:002924711-5.5-22.6
2008-01-01T00:002932711-5.5-22.6
2008-01-01T00:002936710-5.6-22.6
2008-01-01T00:002941710-5.6-22.635510
2008-01-01T00:002959708-5.6-22.7
2008-01-01T00:002969707-5.5-22.5
2008-01-01T00:002974707-5.5-22.6
2008-01-01T00:002989705-5.6-22.635510
2008-01-01T00:002999705-5.6-22.7
2008-01-01T00:003008704-5.6-22.7
2008-01-01T00:003013703-5.7-22.8
2008-01-01T00:003035701-5.8-22.735510
2008-01-01T00:003047700-5.7-22.6
2008-01-01T00:003050700-5.7-22.6
2008-01-01T00:003052700-5.8-22.7
2008-01-01T00:003071698-5.9-22.5
2008-01-01T00:003078697-5.9-22.5
2008-01-01T00:003081697-6.0-22.5
2008-01-01T00:003101695-6.2-22.5
2008-01-01T00:003110695-6.2-22.4
2008-01-01T00:003115694-6.3-22.5
2008-01-01T00:003138692-6.5-22.5
2008-01-01T00:003147691-6.6-22.5
2008-01-01T00:003152691-6.6-22.5
2008-01-01T00:003174689-6.8-22.4
2008-01-01T00:003182688-6.8-22.3
2008-01-01T00:003185688-6.9-22.4
2008-01-01T00:003207686-7.1-22.0
2008-01-01T00:003217685-7.1-21.9
2008-01-01T00:003222685-7.1-21.8
2008-01-01T00:003247683-7.2-21.1
2008-01-01T00:003257682-7.2-20.8
2008-01-01T00:003262681-7.3-20.7
2008-01-01T00:003284679-7.4-20.5
2008-01-01T00:003295678-7.4-20.434911
2008-01-01T00:003299678-7.5-20.4
2008-01-01T00:003318676-7.7-20.3
2008-01-01T00:003328676-7.7-20.2
2008-01-01T00:003332675-7.7-20.2
2008-01-01T00:003354673-7.8-20.1
2008-01-01T00:003363672-7.7-19.9
2008-01-01T00:003368672-7.8-20.0
2008-01-01T00:003391670-7.9-20.0
2008-01-01T00:003401669-8.0-20.0
2008-01-01T00:003406669-8.1-20.0
2008-01-01T00:003427667-8.2-20.1
2008-01-01T00:003433666-8.2-20.0
2008-01-01T00:003436666-8.3-20.1
2008-01-01T00:003455665-8.3-19.9
2008-01-01T00:003465664-8.3-19.8
2008-01-01T00:003469663-8.3-19.8
2008-01-01T00:003494661-8.5-19.8
2008-01-01T00:003504660-8.5-19.7
2008-01-01T00:003509660-8.6-19.7
2008-01-01T00:003531658-8.7-19.6
2008-01-01T00:003543657-8.7-19.5
2008-01-01T00:003546657-8.8-19.6
2008-01-01T00:003554656-8.9-19.533513
2008-01-01T00:003567655-9.0-19.5
2008-01-01T00:003576654-9.0-19.3
2008-01-01T00:003580654-9.0-19.3
2008-01-01T00:003603652-9.1-18.8
2008-01-01T00:003613651-9.1-18.5
2008-01-01T00:003618651-9.3-18.5
2008-01-01T00:003639649-9.4-17.9
2008-01-01T00:003646648-9.5-17.7
2008-01-01T00:003650648-9.6-17.6
2008-01-01T00:003671646-9.8-17.4
2008-01-01T00:003679646-9.8-17.3
2008-01-01T00:003684645-9.9-17.3
2008-01-01T00:003706643-10.0-17.0
2008-01-01T00:003716642-10.1-16.9
2008-01-01T00:003720642-10.1-16.9
2008-01-01T00:003743640-10.2-16.9
2008-01-01T00:003752639-10.2-16.9
2008-01-01T00:003757639-10.3-17.0
2008-01-01T00:003780637-10.2-17.0
2008-01-01T00:003790636-10.2-17.1
2008-01-01T00:003795636-10.3-17.2
2008-01-01T00:003817634-10.5-17.4
2008-01-01T00:003821634-10.5-17.535111
2008-01-01T00:003824634-10.5-17.5
2008-01-01T00:003827633-10.6-17.6
2008-01-01T00:003848632-10.8-17.8
2008-01-01T00:003859631-10.8-17.8
2008-01-01T00:003864630-10.9-17.9
2008-01-01T00:003890628-11.1-18.1
2008-01-01T00:003900627-11.1-18.1
2008-01-01T00:003905627-11.2-18.2
2008-01-01T00:003929625-11.3-18.4
2008-01-01T00:003938624-11.3-18.4
2008-01-01T00:003943624-11.4-18.5
2008-01-01T00:003966622-11.6-18.6
2008-01-01T00:003975621-11.6-18.7
2008-01-01T00:003980621-11.7-18.7
2008-01-01T00:004001619-11.9-18.9
2008-01-01T00:004009618-11.9-18.9
2008-01-01T00:004013618-12.0-18.9
2008-01-01T00:004034616-12.1-19.0
2008-01-01T00:004044616-12.1-19.0
2008-01-01T00:004048615-12.2-19.1
2008-01-01T00:004069614-12.4-19.1
2008-01-01T00:004075613-12.4-19.1
2008-01-01T00:004078613-12.6-19.2
2008-01-01T00:004086612-12.6-19.234513
2008-01-01T00:004098611-12.7-19.3
2008-01-01T00:004108610-12.8-19.3
2008-01-01T00:004113610-12.9-19.3
2008-01-01T00:004137608-13.0-19.3
2008-01-01T00:004145607-13.0-19.3
2008-01-01T00:004150607-13.1-19.3
2008-01-01T00:004170606-13.3-19.2
2008-01-01T00:004179605-13.3-19.1
2008-01-01T00:004183605-13.4-19.2
2008-01-01T00:004204603-13.5-19.1
2008-01-01T00:004213602-13.5-18.9
2008-01-01T00:004218602-13.5-18.9
2008-01-01T00:004240600-13.5-18.6
2008-01-01T00:004249599-13.5-18.5
2008-01-01T00:004254599-13.6-18.5
2008-01-01T00:004275597-13.8-18.5
2008-01-01T00:004283597-13.7-18.4
2008-01-01T00:004287596-13.8-18.5
2008-01-01T00:004308595-13.9-18.5
2008-01-01T00:004316594-13.9-18.5
2008-01-01T00:004321594-13.9-18.5
2008-01-01T00:004342592-14.0-18.7
2008-01-01T00:004346592-14.0-18.734117
2008-01-01T00:004349591-14.0-18.7
2008-01-01T00:004353591-14.1-18.8
2008-01-01T00:004373590-14.3-19.1
2008-01-01T00:004382589-14.3-19.1
2008-01-01T00:004386589-14.4-19.3
2008-01-01T00:004408587-14.6-19.5
2008-01-01T00:004417586-14.6-19.5
2008-01-01T00:004422586-14.7-19.6
2008-01-01T00:004444584-14.9-19.9
2008-01-01T00:004453583-14.9-19.9
2008-01-01T00:004458583-14.9-20.0
2008-01-01T00:004481581-15.1-20.2
2008-01-01T00:004492580-15.1-20.3
2008-01-01T00:004497580-15.2-20.4
2008-01-01T00:004522578-15.4-20.6
2008-01-01T00:004531577-15.4-20.6
2008-01-01T00:004535577-15.5-20.7
2008-01-01T00:004557575-15.7-21.0
2008-01-01T00:004566575-15.7-21.0
2008-01-01T00:004571574-15.8-21.0
2008-01-01T00:004595572-15.7-21.2
2008-01-01T00:004606572-15.7-21.3
2008-01-01T00:004612571-15.8-21.5
2008-01-01T00:004622570-15.8-21.634815
2008-01-01T00:004636569-15.9-21.9
2008-01-01T00:004644569-15.8-22.0
2008-01-01T00:004648568-15.9-22.1
2008-01-01T00:004670567-16.0-22.7
2008-01-01T00:004679566-16.0-22.8
2008-01-01T00:004684566-16.0-23.0
2008-01-01T00:004709564-16.1-23.3
2008-01-01T00:004720563-16.1-23.4
2008-01-01T00:004725563-16.1-23.5
2008-01-01T00:004747561-16.3-23.8
2008-01-01T00:004753561-16.3-23.9
2008-01-01T00:004756560-16.4-24.0
2008-01-01T00:004774559-16.5-24.2
2008-01-01T00:004788558-16.5-24.2
2008-01-01T00:004793558-16.7-24.3
2008-01-01T00:004816556-16.8-24.6
2008-01-01T00:004825555-16.8-24.6
2008-01-01T00:004830555-16.9-24.7
2008-01-01T00:004852553-17.2-25.0
2008-01-01T00:004861553-17.1-25.0
2008-01-01T00:004865552-17.2-25.1
2008-01-01T00:004889551-17.3-25.335516
2008-01-01T00:004899550-17.3-25.4
2008-01-01T00:004904549-17.4-25.5
2008-01-01T00:004929548-17.5-25.7
2008-01-01T00:004939547-17.5-25.8
2008-01-01T00:004944546-17.6-25.9
2008-01-01T00:004970545-17.8-26.2
2008-01-01T00:004980544-17.8-26.2
2008-01-01T00:004985544-17.9-26.3
2008-01-01T00:005009542-18.1-26.6
2008-01-01T00:005023541-18.1-26.6
2008-01-01T00:005027540-18.2-26.7
2008-01-01T00:005050539-18.2-26.9
2008-01-01T00:005060538-18.2-27.0
2008-01-01T00:005064538-18.3-27.1
2008-01-01T00:005087536-18.5-27.3
2008-01-01T00:005095536-18.5-27.4
2008-01-01T00:005100535-18.6-27.5
2008-01-01T00:005122534-18.8-27.7
2008-01-01T00:005131533-18.8-27.7
2008-01-01T00:005136533-19.0-27.9
2008-01-01T00:005159531-19.1-28.0
2008-01-01T00:005173530-19.1-28.035917
2008-01-01T00:005178530-19.2-28.1
2008-01-01T00:005205528-19.6-28.4
2008-01-01T00:005219527-19.6-28.4
2008-01-01T00:005226526-19.7-28.5
2008-01-01T00:005255524-19.9-28.7
2008-01-01T00:005264524-19.9-28.7
2008-01-01T00:005268523-20.0-28.8
2008-01-01T00:005290522-20.2-29.0
2008-01-01T00:005297521-20.1-29.0
2008-01-01T00:005301521-20.2-29.0
2008-01-01T00:005322519-20.3-29.2
2008-01-01T00:005335519-20.4-29.3
2008-01-01T00:005339518-20.4-29.4
2008-01-01T00:005362517-20.6-29.6
2008-01-01T00:005371516-20.5-29.6
2008-01-01T00:005376516-20.6-29.7
2008-01-01T00:005401514-20.8-29.9
2008-01-01T00:005411513-20.8-29.9
2008-01-01T00:005417513-20.8-30.0
2008-01-01T00:005441511-20.9-30.1
2008-01-01T00:005454510-20.9-30.0
2008-01-01T00:005458510-21.0-30.2
2008-01-01T00:005462510-21.0-30.235817
2008-01-01T00:005480509-21.2-30.4
2008-01-01T00:005489508-21.2-30.4
2008-01-01T00:005493508-21.3-30.4
2008-01-01T00:005516506-21.5-30.6
2008-01-01T00:005524505-21.5-30.5
2008-01-01T00:005529505-21.6-30.6
2008-01-01T00:005552504-21.8-30.8
2008-01-01T00:005567502-21.8-30.8
2008-01-01T00:005572502-21.9-30.8
2008-01-01T00:005595501-22.1-31.0
2008-01-01T00:005604500-22.0-31.0
2008-01-01T00:005608500-22.2-31.1
2008-01-01T00:005634498-22.3-31.2
2008-01-01T00:005646497-22.4-31.3
2008-01-01T00:005653497-22.5-31.4
2008-01-01T00:005681495-22.8-31.5
2008-01-01T00:005689494-22.8-31.5
2008-01-01T00:005693494-22.9-31.6
2008-01-01T00:005716492-23.0-31.6
2008-01-01T00:005732491-23.0-31.5
2008-01-01T00:005737491-23.1-31.6
2008-01-01T00:005753490-23.3-31.735219
2008-01-01T00:005764489-23.4-31.7
2008-01-01T00:005775488-23.4-31.7
2008-01-01T00:005780488-23.4-31.8
2008-01-01T00:005805486-23.6-32.0
2008-01-01T00:005812486-23.7-32.0
2008-01-01T00:005816486-23.8-32.1
2008-01-01T00:005838484-24.0-32.3
2008-01-01T00:005854483-24.0-32.3
2008-01-01T00:005859483-24.1-32.4
2008-01-01T00:005886481-24.3-32.6
2008-01-01T00:005898480-24.3-32.6
2008-01-01T00:005904480-24.4-32.7
2008-01-01T00:005932478-24.8-33.0
2008-01-01T00:005943477-24.8-33.0
2008-01-01T00:005949477-24.9-33.1
2008-01-01T00:005972475-25.1-33.3
2008-01-01T00:005983475-25.1-33.3
2008-01-01T00:005987474-25.2-33.4
2008-01-01T00:006010473-25.4-33.6
2008-01-01T00:006022472-25.4-33.6
2008-01-01T00:006028472-25.5-33.7
2008-01-01T00:006056470-25.8-33.935019
2008-01-01T00:006066469-25.8-33.9
2008-01-01T00:006071469-25.9-34.0
2008-01-01T00:006095467-26.1-34.2
2008-01-01T00:006108467-26.1-34.2
2008-01-01T00:006112466-26.2-34.3
2008-01-01T00:006134465-26.5-34.5
2008-01-01T00:006143464-26.5-34.5
2008-01-01T00:006147464-26.6-34.6
2008-01-01T00:006173462-26.8-34.8
2008-01-01T00:006185462-26.9-34.8
2008-01-01T00:006192461-27.0-34.9
2008-01-01T00:006218460-27.2-35.1
2008-01-01T00:006230459-27.2-35.0
2008-01-01T00:006233459-27.3-35.1
2008-01-01T00:006257457-27.5-35.3
2008-01-01T00:006269456-27.5-35.3
2008-01-01T00:006275456-27.6-35.4
2008-01-01T00:006301454-27.8-35.6
2008-01-01T00:006315453-27.8-35.6
2008-01-01T00:006320453-27.9-35.7
2008-01-01T00:006339452-28.1-35.9
2008-01-01T00:006342452-28.1-35.935421
2008-01-01T00:006345451-28.1-35.9
2008-01-01T00:006348451-28.2-36.0
2008-01-01T00:006370450-28.4-36.3
2008-01-01T00:006382449-28.4-36.3
2008-01-01T00:006389449-28.5-36.4
2008-01-01T00:006418447-28.8-36.7
2008-01-01T00:006435446-28.9-36.9
2008-01-01T00:006440446-29.0-37.0
2008-01-01T00:006469444-29.3-37.3
2008-01-01T00:006480443-29.3-37.3
2008-01-01T00:006486443-29.4-37.5
2008-01-01T00:006512441-29.7-37.7
2008-01-01T00:006519441-29.7-37.7
2008-01-01T00:006527440-29.8-37.8
2008-01-01T00:006550439-30.0-38.0
2008-01-01T00:006561438-30.0-38.0
2008-01-01T00:006566438-30.1-38.1
2008-01-01T00:006595436-30.4-38.3
2008-01-01T00:006608435-30.4-38.3
2008-01-01T00:006615435-30.5-38.5
2008-01-01T00:006642433-30.7-38.6
2008-01-01T00:006652432-30.6-38.635120
2008-01-01T00:006656432-30.8-38.7
2008-01-01T00:006680431-31.1-39.0
2008-01-01T00:006693430-31.1-39.0
2008-01-01T00:006699430-31.2-39.1
2008-01-01T00:006729428-31.5-39.4
2008-01-01T00:006743427-31.5-39.4
2008-01-01T00:006748427-31.5-39.5
2008-01-01T00:006774425-31.8-39.8
2008-01-01T00:006786424-31.8-39.8
2008-01-01T00:006791424-31.9-39.9
2008-01-01T00:006816423-32.0-40.1
2008-01-01T00:006823422-32.0-40.1
2008-01-01T00:006830422-32.1-40.2
2008-01-01T00:006854420-32.3-40.5
2008-01-01T00:006868419-32.2-40.4
2008-01-01T00:006874419-32.3-40.5
2008-01-01T00:006904417-32.6-40.9
2008-01-01T00:006914417-32.5-40.8
2008-01-01T00:006924416-32.6-41.0
2008-01-01T00:006950415-32.7-41.2
2008-01-01T00:006960414-32.7-41.3
2008-01-01T00:006965414-32.8-41.435316
2008-01-01T00:006990412-33.1-41.8
2008-01-01T00:007000412-33.0-41.8
2008-01-01T00:007005411-33.1-41.9
2008-01-01T00:007029410-33.3-42.2
2008-01-01T00:007044409-33.2-42.2
2008-01-01T00:007049409-33.3-42.3
2008-01-01T00:007071408-33.6-42.7
2008-01-01T00:007078407-33.6-42.7
2008-01-01T00:007086407-33.7-42.8
2008-01-01T00:007109405-33.9-43.2
2008-01-01T00:007122405-33.9-43.2
2008-01-01T00:007129404-34.0-43.3
2008-01-01T00:007161402-34.4-43.7
2008-01-01T00:007180401-34.5-43.8
2008-01-01T00:007187401-34.6-43.9
2008-01-01T00:007201400-34.7-44.0
2008-01-01T00:007217399-34.8-44.2
2008-01-01T00:007227399-34.8-44.2
2008-01-01T00:007233398-35.0-44.3
2008-01-01T00:007257397-35.2-44.6
2008-01-01T00:007269396-35.2-44.6
2008-01-01T00:007274396-35.3-44.734917
2008-01-01T00:007295395-35.6-44.9
2008-01-01T00:007305394-35.6-44.9
2008-01-01T00:007310394-35.7-45.0
2008-01-01T00:007335392-35.9-45.2
2008-01-01T00:007351392-35.8-45.1
2008-01-01T00:007356391-36.0-45.2
2008-01-01T00:007384390-36.3-45.5
2008-01-01T00:007395389-36.3-45.5
2008-01-01T00:007407388-36.4-45.6
2008-01-01T00:007433387-36.7-45.8
2008-01-01T00:007443386-36.6-45.8
2008-01-01T00:007448386-36.7-45.9
2008-01-01T00:007471385-36.9-46.1
2008-01-01T00:007485384-36.9-46.1
2008-01-01T00:007490384-37.0-46.1
2008-01-01T00:007514382-37.3-46.4
2008-01-01T00:007523382-37.3-46.4
2008-01-01T00:007528382-37.4-46.5
2008-01-01T00:007550380-37.6-46.7
2008-01-01T00:007563380-37.5-46.6
2008-01-01T00:007567379-37.7-46.834719
2008-01-01T00:007589378-37.9-47.0
2008-01-01T00:007599378-37.9-47.0
2008-01-01T00:007608377-38.0-47.1
2008-01-01T00:007633376-38.2-47.3
2008-01-01T00:007643375-38.2-47.3
2008-01-01T00:007648375-38.3-47.4
2008-01-01T00:007672374-38.6-47.6
2008-01-01T00:007687373-38.5-47.6
2008-01-01T00:007691373-38.6-47.6
2008-01-01T00:007717371-38.8-47.9
2008-01-01T00:007728371-38.8-47.8
2008-01-01T00:007734370-38.9-48.0
2008-01-01T00:007759369-39.1-48.2
2008-01-01T00:007772368-39.1-48.2
2008-01-01T00:007776368-39.2-48.3
2008-01-01T00:007800367-39.5-48.6
2008-01-01T00:007817366-39.6-48.7
2008-01-01T00:007822366-39.7-48.8
2008-01-01T00:007852364-40.0-49.1
2008-01-01T00:007865363-40.0-49.1
2008-01-01T00:007872363-40.1-49.235119
2008-01-01T00:007899362-40.3-49.4
2008-01-01T00:007912361-40.3-49.4
2008-01-01T00:007916361-40.4-49.5
2008-01-01T00:007937360-40.5-49.7
2008-01-01T00:007947359-40.5-49.7
2008-01-01T00:007956358-40.6-49.8
2008-01-01T00:007980357-40.9-50.1
2008-01-01T00:007989357-40.9-50.1
2008-01-01T00:007994357-41.0-50.2
2008-01-01T00:008015355-41.2-50.4
2008-01-01T00:008027355-41.2-50.4
2008-01-01T00:008031355-41.3-50.5
2008-01-01T00:008050354-41.5-50.7
2008-01-01T00:008059353-41.5-50.7
2008-01-01T00:008067353-41.6-50.8
2008-01-01T00:008088352-41.8-51.0
2008-01-01T00:008097351-41.7-50.9
2008-01-01T00:008102351-41.8-51.0
2008-01-01T00:008125350-41.9-51.1
2008-01-01T00:008139349-41.8-51.035619
2008-01-01T00:008144349-41.8-51.0
2008-01-01T00:008167348-42.0-51.2
2008-01-01T00:008179347-41.9-51.1
2008-01-01T00:008183347-42.0-51.2
2008-01-01T00:008207345-42.3-51.5
2008-01-01T00:008218345-42.2-51.4
2008-01-01T00:008224345-42.3-51.5
2008-01-01T00:008250343-42.5-51.8
2008-01-01T00:008263343-42.5-51.7
2008-01-01T00:008268342-42.6-51.8
2008-01-01T00:008288341-42.9-52.1
2008-01-01T00:008299341-42.8-52.1
2008-01-01T00:008303341-43.0-52.2
2008-01-01T00:008324340-43.2-52.4
2008-01-01T00:008334339-43.1-52.4
2008-01-01T00:008339339-43.3-52.5
2008-01-01T00:008363338-43.3-52.6
2008-01-01T00:008377337-43.2-52.5
2008-01-01T00:008381337-43.3-52.6
2008-01-01T00:008403336-43.5-52.7
2008-01-01T00:008412335-43.4-52.7218
2008-01-01T00:008416335-43.4-52.7
2008-01-01T00:008421335-43.5-52.8
2008-01-01T00:008447333-43.6-52.9
2008-01-01T00:008460333-43.6-52.9
2008-01-01T00:008473332-43.7-53.0
2008-01-01T00:008502331-43.9-53.2
2008-01-01T00:008511330-43.9-53.2
2008-01-01T00:008516330-44.0-53.3
2008-01-01T00:008539329-44.2-53.5
2008-01-01T00:008553328-44.2-53.5
2008-01-01T00:008558328-44.3-53.6
2008-01-01T00:008581327-44.6-53.9
2008-01-01T00:008595326-44.5-53.9
2008-01-01T00:008600326-44.6-54.0
2008-01-01T00:008625325-44.9-54.2
2008-01-01T00:008635324-44.9-54.2
2008-01-01T00:008641324-45.0-54.3
2008-01-01T00:008667323-45.2-54.5
2008-01-01T00:008683322-45.2-54.5
2008-01-01T00:008689322-45.3-54.6
2008-01-01T00:008714320-45.5-54.9
2008-01-01T00:008719320-45.5-54.9921
2008-01-01T00:008728320-45.5-54.9
2008-01-01T00:008733319-45.7-55.0
2008-01-01T00:008757318-46.0-55.3
2008-01-01T00:008772318-46.0-55.3
2008-01-01T00:008777317-46.1-55.4
2008-01-01T00:008803316-46.4-55.7
2008-01-01T00:008815316-46.4-55.7
2008-01-01T00:008821315-46.5-55.8
2008-01-01T00:008847314-46.8-56.1
2008-01-01T00:008860313-46.8-56.1
2008-01-01T00:008864313-47.0-56.2
2008-01-01T00:008888312-47.2-56.5
2008-01-01T00:008906311-47.2-56.5
2008-01-01T00:008912311-47.3-56.6
2008-01-01T00:008936310-47.7-56.9
2008-01-01T00:008947309-47.7-56.9
2008-01-01T00:008950309-47.7-57.0
2008-01-01T00:008969308-48.0-57.2
2008-01-01T00:008978308-48.0-57.2
2008-01-01T00:008986307-48.1-57.3
2008-01-01T00:009004307-48.3-57.51423
2008-01-01T00:009009306-48.4-57.6
2008-01-01T00:009018306-48.3-57.5
2008-01-01T00:009022306-48.4-57.6
2008-01-01T00:009045305-48.6-57.8
2008-01-01T00:009057304-48.6-57.8
2008-01-01T00:009061304-48.7-57.8
2008-01-01T00:009083303-48.9-58.1
2008-01-01T00:009096302-48.8-58.0
2008-01-01T00:009100302-48.9-58.1
2008-01-01T00:009121301-49.2-58.3
2008-01-01T00:009134301-49.1-58.2
2008-01-01T00:009138300-49.2-58.3
2008-01-01T00:009148300-49.3-58.5
2008-01-01T00:009158300-49.4-58.6
2008-01-01T00:009166299-49.4-58.5
2008-01-01T00:009174299-49.5-58.6
2008-01-01T00:009197298-49.7-58.8
2008-01-01T00:009208297-49.7-58.8
2008-01-01T00:009214297-49.8-58.9
2008-01-01T00:009237296-50.0-59.1
2008-01-01T00:009248295-49.9-59.0
2008-01-01T00:009251295-50.0-59.1
2008-01-01T00:009262295-50.2-59.3822
2008-01-01T00:009270294-50.3-59.4
2008-01-01T00:009282294-50.2-59.3
2008-01-01T00:009285294-50.3-59.4
2008-01-01T00:009309293-50.6-59.6
2008-01-01T00:009327292-50.4-59.5
2008-01-01T00:009333292-50.6-59.6
2008-01-01T00:009359290-50.8-59.8
2008-01-01T00:009369290-50.7-59.8
2008-01-01T00:009378290-50.8-59.9
2008-01-01T00:009403288-51.1-60.1
2008-01-01T00:009414288-51.0-60.1
2008-01-01T00:009419288-51.1-60.1
2008-01-01T00:009445287-51.4-60.3
2008-01-01T00:009458286-51.2-60.2
2008-01-01T00:009462286-51.3-60.3
2008-01-01T00:009484285-51.6-60.5
2008-01-01T00:009498284-51.5-60.5
2008-01-01T00:009503284-51.6-60.6
2008-01-01T00:009526283-51.9-60.8
2008-01-01T00:009540282-51.9-60.8
2008-01-01T00:009544282-52.0-60.9
2008-01-01T00:009550282-52.1-61.0020
2008-01-01T00:009571281-52.3-61.2
2008-01-01T00:009591280-52.3-61.2
2008-01-01T00:009597280-52.4-61.3
2008-01-01T00:009626279-52.7-61.6
2008-01-01T00:009635278-52.7-61.6
2008-01-01T00:009644278-52.7-61.6
2008-01-01T00:009669277-53.2-62.0
2008-01-01T00:009679276-53.0-61.8
2008-01-01T00:009684276-53.1-62.0
2008-01-01T00:009712275-53.6-62.4
2008-01-01T00:009729274-53.5-62.3
2008-01-01T00:009735274-53.6-62.4
2008-01-01T00:009764273-54.0-62.8
2008-01-01T00:009783272-54.0-62.8
2008-01-01T00:009789272-54.1-62.9
2008-01-01T00:009819270-54.4-63.1
2008-01-01T00:009836270-54.5-63.2
2008-01-01T00:009842270-54.5-63.2
2008-01-01T00:009866268-54.8-63.5
2008-01-01T00:009877268-54.6-63.335823
2008-01-01T00:009880268-54.7-63.4
2008-01-01T00:009899267-54.8-63.5
2008-01-01T00:009911267-54.7-63.4
2008-01-01T00:009916266-54.8-63.5
2008-01-01T00:009937266-55.0-63.7
2008-01-01T00:009945265-54.9-63.6
2008-01-01T00:009952265-55.0-63.7
2008-01-01T00:009974264-55.3-64.0
2008-01-01T00:009983264-55.3-63.9
2008-01-01T00:009992263-55.3-64.0
2008-01-01T00:0010015262-55.6-64.2
2008-01-01T00:0010024262-55.5-64.1
2008-01-01T00:0010028262-55.5-64.1
2008-01-01T00:0010050261-55.8-64.4
2008-01-01T00:0010063260-55.8-64.4
2008-01-01T00:0010067260-55.9-64.5
2008-01-01T00:0010089259-56.2-64.7
2008-01-01T00:0010103259-56.1-64.6
2008-01-01T00:0010107259-56.1-64.7
2008-01-01T00:0010129258-56.4-64.9
2008-01-01T00:0010133257-56.4-64.935722
2008-01-01T00:0010141257-56.3-64.8
2008-01-01T00:0010145257-56.4-64.9
2008-01-01T00:0010166256-56.7-65.2
2008-01-01T00:0010180256-56.6-65.1
2008-01-01T00:0010184255-56.7-65.2
2008-01-01T00:0010208254-57.0-65.5
2008-01-01T00:0010224254-57.0-65.5
2008-01-01T00:0010229254-57.0-65.5
2008-01-01T00:0010255253-57.4-65.8
2008-01-01T00:0010270252-57.3-65.7
2008-01-01T00:0010275252-57.4-65.8
2008-01-01T00:0010304251-57.7-66.2
2008-01-01T00:0010318250-57.7-66.1
2008-01-01T00:0010320250-57.7-66.1
2008-01-01T00:0010331250-57.8-66.3
2008-01-01T00:0010358248-58.2-66.6
2008-01-01T00:0010365248-58.2-66.5
2008-01-01T00:0010371248-58.3-66.6
2008-01-01T00:0010392247-58.5-66.9
2008-01-01T00:0010402247-58.4-66.8
2008-01-01T00:0010407247-58.5-66.9
2008-01-01T00:0010427246-58.8-67.135920
2008-01-01T00:0010432246-58.8-67.2
2008-01-01T00:0010448245-58.8-67.1
2008-01-01T00:0010453245-58.9-67.2
2008-01-01T00:0010480244-59.2-67.5
2008-01-01T00:0010497243-59.1-67.4
2008-01-01T00:0010502243-59.3-67.5
2008-01-01T00:0010528242-59.6-67.8
2008-01-01T00:0010541241-59.5-67.8
2008-01-01T00:0010545241-59.6-67.8
2008-01-01T00:0010568240-59.9-68.1
2008-01-01T00:0010583240-59.9-68.1
2008-01-01T00:0010589240-60.0-68.2
2008-01-01T00:0010613239-60.3-68.5
2008-01-01T00:0010627238-60.2-68.4
2008-01-01T00:0010631238-60.4-68.5
2008-01-01T00:0010652237-60.7-68.8
2008-01-01T00:0010663237-60.6-68.8
2008-01-01T00:0010667237-60.7-68.8
2008-01-01T00:0010687236-61.0-69.2
2008-01-01T00:0010702235-61.0-69.1
2008-01-01T00:0010707235-61.0-69.2
2008-01-01T00:0010711235-61.1-69.235717
2008-01-01T00:0010728234-61.4-69.4
2008-01-01T00:0010739234-61.3-69.4
2008-01-01T00:0010742234-61.4-69.5
2008-01-01T00:0010764233-61.7-69.8
2008-01-01T00:0010780232-61.6-69.7
2008-01-01T00:0010786232-61.7-69.8
2008-01-01T00:0010809231-62.0-70.1
2008-01-01T00:0010820231-62.0-70.0
2008-01-01T00:0010823231-62.0-70.1
2008-01-01T00:0010844230-62.3-70.3
2008-01-01T00:0010858229-62.2-70.2
2008-01-01T00:0010863229-62.3-70.3
2008-01-01T00:0010885228-62.5-70.5
2008-01-01T00:0010892228-62.3-70.3
2008-01-01T00:0010899228-62.4-70.4
2008-01-01T00:0010921227-62.5-70.5
2008-01-01T00:0010931227-62.3-70.3
2008-01-01T00:0010941226-62.4-70.4
2008-01-01T00:0010966225-62.5-70.5
2008-01-01T00:0010976225-62.4-70.434916
2008-01-01T00:0010987225-62.6-70.5
2008-01-01T00:0011009224-62.8-70.7
2008-01-01T00:0011016224-62.6-70.6
2008-01-01T00:0011024223-62.7-70.7
2008-01-01T00:0011043223-62.9-70.8
2008-01-01T00:0011053222-62.7-70.7
2008-01-01T00:0011062222-62.8-70.8
2008-01-01T00:0011085221-63.0-71.0
2008-01-01T00:0011095221-63.0-70.9
2008-01-01T00:0011100220-63.0-71.0
2008-01-01T00:0011124220-63.3-71.2
2008-01-01T00:0011136219-63.1-71.0
2008-01-01T00:0011141219-63.2-71.1
2008-01-01T00:0011161218-63.4-71.3
2008-01-01T00:0011174218-63.2-71.1
2008-01-01T00:0011178218-63.3-71.2
2008-01-01T00:0011199217-63.3-71.2
2008-01-01T00:0011212217-63.2-71.1
2008-01-01T00:0011216216-63.1-71.0
2008-01-01T00:0011238216-63.1-71.034318
2008-01-01T00:0011252215-62.9-70.8
2008-01-01T00:0011257215-62.8-70.8
2008-01-01T00:0011279214-62.7-70.7
2008-01-01T00:0011290214-62.5-70.5
2008-01-01T00:0011293214-62.6-70.6
2008-01-01T00:0011311213-62.8-70.7
2008-01-01T00:0011322213-62.6-70.5
2008-01-01T00:0011326213-62.5-70.5
2008-01-01T00:0011346212-62.2-70.2
2008-01-01T00:0011359211-61.9-69.9
2008-01-01T00:0011364211-61.9-69.9
2008-01-01T00:0011384211-61.6-69.7
2008-01-01T00:0011394210-61.2-69.3
2008-01-01T00:0011398210-61.2-69.2
2008-01-01T00:0011416209-60.9-69.1
2008-01-01T00:0011429209-60.8-68.9
2008-01-01T00:0011433209-60.8-68.9
2008-01-01T00:0011454208-60.9-69.0
2008-01-01T00:0011462208-60.8-68.9
2008-01-01T00:0011470208-60.9-69.0
2008-01-01T00:0011478207-61.0-69.134019
2008-01-01T00:0011491207-61.1-69.2
2008-01-01T00:0011501207-61.0-69.1
2008-01-01T00:0011506206-61.0-69.1
2008-01-01T00:0011526206-61.1-69.2
2008-01-01T00:0011536205-61.0-69.1
2008-01-01T00:0011540205-61.1-69.2
2008-01-01T00:0011557205-61.4-69.4
2008-01-01T00:0011568204-61.2-69.3
2008-01-01T00:0011572204-61.2-69.3
2008-01-01T00:0011591204-61.5-69.5
2008-01-01T00:0011604203-61.3-69.4
2008-01-01T00:0011608203-61.3-69.4
2008-01-01T00:0011631202-61.5-69.6
2008-01-01T00:0011646202-61.4-69.5
2008-01-01T00:0011650202-61.5-69.5
2008-01-01T00:0011674201-61.7-69.7
2008-01-01T00:0011686201-61.4-69.4
2008-01-01T00:0011690200-61.3-69.4
2008-01-01T00:0011703200-61.4-69.5
2008-01-01T00:0011710200-61.5
2008-01-01T00:0011716200-61.3
2008-01-01T00:0011723199-61.333917
2008-01-01T00:0011739199-61.6
2008-01-01T00:0011744199-61.5
2008-01-01T00:0011750198-61.5
2008-01-01T00:0011769198-61.7
2008-01-01T00:0011780198-61.6
2008-01-01T00:0011786197-61.6
2008-01-01T00:0011810197-62.0
2008-01-01T00:0011822196-61.8
2008-01-01T00:0011826196-61.8
2008-01-01T00:0011847195-62.0
2008-01-01T00:0011861195-61.8
2008-01-01T00:0011865195-61.9
2008-01-01T00:0011887194-62.0
2008-01-01T00:0011897194-61.9
2008-01-01T00:0011901194-62.0
2008-01-01T00:0011919193-62.0
2008-01-01T00:0011930193-61.7
2008-01-01T00:0011934193-61.7
2008-01-01T00:0011955192-61.7
2008-01-01T00:0011965192-61.532716
2008-01-01T00:0011974191-61.5
2008-01-01T00:0011997191-61.6
2008-01-01T00:0012006190-61.4
2008-01-01T00:0012010190-61.4
2008-01-01T00:0012031190-61.6
2008-01-01T00:0012045189-61.4
2008-01-01T00:0012050189-61.5
2008-01-01T00:0012073188-61.2
2008-01-01T00:0012086188-61.0
2008-01-01T00:0012090188-61.1
2008-01-01T00:0012113187-61.3
2008-01-01T00:0012126187-61.1
2008-01-01T00:0012131187-61.2
2008-01-01T00:0012151186-61.4
2008-01-01T00:0012158186-61.2
2008-01-01T00:0012165186-61.2
2008-01-01T00:0012185185-60.8
2008-01-01T00:0012193185-60.6
2008-01-01T00:0012198185-60.6
2008-01-01T00:0012223184-59.8
2008-01-01T00:0012228184-59.833119
2008-01-01T00:0012239183-59.6
2008-01-01T00:0012245183-59.7
2008-01-01T00:0012269183-59.9
2008-01-01T00:0012280182-59.5
2008-01-01T00:0012284182-59.7
2008-01-01T00:0012302182-59.6
2008-01-01T00:0012313181-59.3
2008-01-01T00:0012316181-59.3
2008-01-01T00:0012335181-59.1
2008-01-01T00:0012344180-58.9
2008-01-01T00:0012348180-59.0
2008-01-01T00:0012376179-59.2
2008-01-01T00:0012386179-59.0
2008-01-01T00:0012391179-59.0
2008-01-01T00:0012412178-59.2
2008-01-01T00:0012421178-58.6
2008-01-01T00:0012425178-58.7
2008-01-01T00:0012444178-58.6
2008-01-01T00:0012453177-58.4
2008-01-01T00:0012463177-58.4
2008-01-01T00:0012480176-58.233519
2008-01-01T00:0012485176-58.1
2008-01-01T00:0012492176-57.8
2008-01-01T00:0012496176-57.7
2008-01-01T00:0012514176-57.7
2008-01-01T00:0012525175-57.3
2008-01-01T00:0012528175-57.3
2008-01-01T00:0012548175-57.6
2008-01-01T00:0012563174-57.4
2008-01-01T00:0012568174-57.5
2008-01-01T00:0012592173-57.5
2008-01-01T00:0012601173-57.3
2008-01-01T00:0012605173-57.3
2008-01-01T00:0012628172-57.3
2008-01-01T00:0012642172-57.2
2008-01-01T00:0012646172-57.3
2008-01-01T00:0012667171-57.5
2008-01-01T00:0012679171-57.3
2008-01-01T00:0012683171-57.4
2008-01-01T00:0012703170-57.4
2008-01-01T00:0012713170-57.2
2008-01-01T00:0012717170-57.2
2008-01-01T00:0012735170-57.333617
2008-01-01T00:0012740169-57.4
2008-01-01T00:0012752169-57.2
2008-01-01T00:0012756169-57.2
2008-01-01T00:0012775168-57.5
2008-01-01T00:0012786168-57.3
2008-01-01T00:0012790168-57.3
2008-01-01T00:0012811168-57.5
2008-01-01T00:0012821167-57.4
2008-01-01T00:0012826167-57.4
2008-01-01T00:0012848167-57.5
2008-01-01T00:0012859166-57.4
2008-01-01T00:0012862166-57.4
2008-01-01T00:0012881166-57.5
2008-01-01T00:0012895165-57.3
2008-01-01T00:0012899165-57.3
2008-01-01T00:0012921165-57.2
2008-01-01T00:0012930164-56.8
2008-01-01T00:0012934164-56.7
2008-01-01T00:0012955164-56.6
2008-01-01T00:0012967163-56.3
2008-01-01T00:0012971163-56.2
2008-01-01T00:0012982163-56.032821
2008-01-01T00:0012989163-55.9
2008-01-01T00:0012996163-55.6
2008-01-01T00:0013004162-55.7
2008-01-01T00:0013024162-55.9
2008-01-01T00:0013033162-55.5
2008-01-01T00:0013038162-55.6
2008-01-01T00:0013060161-55.4
2008-01-01T00:0013072161-55.2
2008-01-01T00:0013076161-55.2
2008-01-01T00:0013100160-55.2
2008-01-01T00:0013111160-54.9
2008-01-01T00:0013117160-54.9
2008-01-01T00:0013141159-55.2
2008-01-01T00:0013151159-55.0
2008-01-01T00:0013154159-55.2
2008-01-01T00:0013173158-55.2
2008-01-01T00:0013181158-55.0
2008-01-01T00:0013190158-55.0
2008-01-01T00:0013213157-55.1
2008-01-01T00:0013223157-54.9
2008-01-01T00:0013228157-55.0
2008-01-01T00:0013242157-55.033320
2008-01-01T00:0013251156-55.0
2008-01-01T00:0013262156-54.7
2008-01-01T00:0013266156-54.7
2008-01-01T00:0013287155-54.9
2008-01-01T00:0013296155-54.6
2008-01-01T00:0013301155-54.7
2008-01-01T00:0013324155-54.8
2008-01-01T00:0013337154-54.6
2008-01-01T00:0013341154-54.7
2008-01-01T00:0013363154-55.0
2008-01-01T00:0013372153-54.8
2008-01-01T00:0013376153-54.9
2008-01-01T00:0013396153-55.2
2008-01-01T00:0013405153-55.0
2008-01-01T00:0013408153-55.1
2008-01-01T00:0013425152-55.1
2008-01-01T00:0013434152-54.8
2008-01-01T00:0013442152-54.9
2008-01-01T00:0013465151-55.0
2008-01-01T00:0013476151-54.8
2008-01-01T00:0013481151-54.8
2008-01-01T00:0013495150-54.833219
2008-01-01T00:0013504150-54.8
2008-01-01T00:0013511150-54.7
2008-01-01T00:0013514150-54.7
2008-01-01T00:0013519150-54.7
2008-01-01T00:0013540149-55.0
2008-01-01T00:0013551149-54.5
2008-01-01T00:0013556149-54.5
2008-01-01T00:0013579148-54.1
2008-01-01T00:0013591148-53.9
2008-01-01T00:0013594148-53.9
2008-01-01T00:0013615148-54.0
2008-01-01T00:0013624147-53.8
2008-01-01T00:0013629147-53.9
2008-01-01T00:0013652147-54.0
2008-01-01T00:0013665146-53.7
2008-01-01T00:0013670146-53.7
2008-01-01T00:0013689146-53.8
2008-01-01T00:0013694146-53.7
2008-01-01T00:0013696146-53.8
2008-01-01T00:0013715145-54.1
2008-01-01T00:0013731145-54.0
2008-01-01T00:0013736145-54.1
2008-01-01T00:0013751145-54.233221
2008-01-01T00:0013760144-54.3
2008-01-01T00:0013768144-54.2
2008-01-01T00:0013771144-54.3
2008-01-01T00:0013791144-54.5
2008-01-01T00:0013805143-54.3
2008-01-01T00:0013809143-54.5
2008-01-01T00:0013831143-54.6
2008-01-01T00:0013839143-54.5
2008-01-01T00:0013843142-54.6
2008-01-01T00:0013864142-54.9
2008-01-01T00:0013877142-54.8
2008-01-01T00:0013882142-55.0
2008-01-01T00:0013902141-55.2
2008-01-01T00:0013909141-55.0
2008-01-01T00:0013913141-55.2
2008-01-01T00:0013932141-55.4
2008-01-01T00:0013945140-55.2
2008-01-01T00:0013949140-55.3
2008-01-01T00:0013973140-55.6
2008-01-01T00:0013984139-55.4
2008-01-01T00:0013990139-55.5
2008-01-01T00:0014010139-55.634317
2008-01-01T00:0014015139-55.7
2008-01-01T00:0014027138-55.5
2008-01-01T00:0014031138-55.6
2008-01-01T00:0014050138-55.8
2008-01-01T00:0014057138-55.7
2008-01-01T00:0014061138-55.8
2008-01-01T00:0014079137-55.9
2008-01-01T00:0014092137-55.7
2008-01-01T00:0014096137-55.8
2008-01-01T00:0014118136-56.0
2008-01-01T00:0014126136-55.6
2008-01-01T00:0014130136-55.7
2008-01-01T00:0014151136-55.9
2008-01-01T00:0014163136-55.6
2008-01-01T00:0014167135-55.8
2008-01-01T00:0014190135-55.7
2008-01-01T00:0014201135-55.5
2008-01-01T00:0014206135-55.6
2008-01-01T00:0014228134-55.8
2008-01-01T00:0014237134-55.6
2008-01-01T00:0014240134-55.7
2008-01-01T00:0014256134-55.833516
2008-01-01T00:0014260133-55.8
2008-01-01T00:0014272133-55.6
2008-01-01T00:0014277133-55.8
2008-01-01T00:0014303133-56.0
2008-01-01T00:0014316132-55.8
2008-01-01T00:0014320132-56.0
2008-01-01T00:0014346132-56.4
2008-01-01T00:0014360131-56.3
2008-01-01T00:0014367131-56.4
2008-01-01T00:0014396131-56.8
2008-01-01T00:0014410130-56.7
2008-01-01T00:0014414130-56.8
2008-01-01T00:0014437130-57.2
2008-01-01T00:0014446130-57.0
2008-01-01T00:0014450130-57.1
2008-01-01T00:0014472129-57.3
2008-01-01T00:0014485129-57.2
2008-01-01T00:0014490129-57.4
2008-01-01T00:0014511128-57.6
2008-01-01T00:0014520128-57.5
2008-01-01T00:0014528128-57.6
2008-01-01T00:0014545128-57.833513
2008-01-01T00:0014549128-57.9
2008-01-01T00:0014557127-57.8
2008-01-01T00:0014562127-57.9
2008-01-01T00:0014582127-58.2
2008-01-01T00:0014590127-58.0
2008-01-01T00:0014598127-58.2
2008-01-01T00:0014616126-58.2
2008-01-01T00:0014621126-58.0
2008-01-01T00:0014624126-58.1
2008-01-01T00:0014643126-58.1
2008-01-01T00:0014654125-58.0
2008-01-01T00:0014665125-58.1
2008-01-01T00:0014689125-58.3
2008-01-01T00:0014696125-58.1
2008-01-01T00:0014700124-58.1
2008-01-01T00:0014715124-58.3
2008-01-01T00:0014723124-58.1
2008-01-01T00:0014725124-58.2
2008-01-01T00:0014745124-58.3
2008-01-01T00:0014757123-58.2
2008-01-01T00:0014763123-58.3
2008-01-01T00:0014790123-58.632713
2008-01-01T00:0014803122-58.4
2008-01-01T00:0014807122-58.5
2008-01-01T00:0014827122-58.6
2008-01-01T00:0014834122-58.5
2008-01-01T00:0014838122-58.6
2008-01-01T00:0014855121-58.9
2008-01-01T00:0014865121-58.8
2008-01-01T00:0014869121-58.8
2008-01-01T00:0014887121-58.9
2008-01-01T00:0014894121-58.7
2008-01-01T00:0014898121-58.7
2008-01-01T00:0014919120-58.9
2008-01-01T00:0014932120-58.8
2008-01-01T00:0014937120-58.9
2008-01-01T00:0014960119-59.0
2008-01-01T00:0014971119-58.9
2008-01-01T00:0014976119-58.9
2008-01-01T00:0014998119-59.1
2008-01-01T00:0015008119-59.0
2008-01-01T00:0015011118-59.0
2008-01-01T00:0015030118-59.032915
2008-01-01T00:0015037118-58.6
2008-01-01T00:0015041118-58.1
2008-01-01T00:0015060118-57.7
2008-01-01T00:0015072117-56.9
2008-01-01T00:0015075117-57.0
2008-01-01T00:0015094117-57.2
2008-01-01T00:0015102117-57.0
2008-01-01T00:0015106117-57.0
2008-01-01T00:0015126116-56.9
2008-01-01T00:0015138116-56.5
2008-01-01T00:0015142116-56.6
2008-01-01T00:0015166116-56.4
2008-01-01T00:0015178115-56.1
2008-01-01T00:0015184115-56.2
2008-01-01T00:0015209115-56.4
2008-01-01T00:0015221115-56.0
2008-01-01T00:0015225115-56.1
2008-01-01T00:0015246114-56.0
2008-01-01T00:0015256114-55.7
2008-01-01T00:0015261114-55.7
2008-01-01T00:0015284113-55.7
2008-01-01T00:0015288113-55.634116
2008-01-01T00:0015293113-55.5
2008-01-01T00:0015297113-55.4
2008-01-01T00:0015324113-55.7
2008-01-01T00:0015333113-55.5
2008-01-01T00:0015337113-55.6
2008-01-01T00:0015361112-55.9
2008-01-01T00:0015372112-55.7
2008-01-01T00:0015378112-55.8
2008-01-01T00:0015403111-56.0
2008-01-01T00:0015415111-55.9
2008-01-01T00:0015419111-55.9
2008-01-01T00:0015441111-56.2
2008-01-01T00:0015451111-56.0
2008-01-01T00:0015456110-56.2
2008-01-01T00:0015479110-56.5
2008-01-01T00:0015487110-56.4
2008-01-01T00:0015495110-56.5
2008-01-01T00:0015517109-56.8
2008-01-01T00:0015528109-56.6
2008-01-01T00:0015533109-56.7
2008-01-01T00:0015563109-57.0
2008-01-01T00:0015577108-56.835416
2008-01-01T00:0015584108-56.9
2008-01-01T00:0015615108-57.2
2008-01-01T00:0015630107-57.0
2008-01-01T00:0015635107-57.1
2008-01-01T00:0015656107-57.4
2008-01-01T00:0015662107-57.3
2008-01-01T00:0015665107-57.5
2008-01-01T00:0015684107-57.7
2008-01-01T00:0015701106-57.6
2008-01-01T00:0015707106-57.7
2008-01-01T00:0015734106-58.0
2008-01-01T00:0015745106-57.8
2008-01-01T00:0015750105-57.9
2008-01-01T00:0015775105-58.2
2008-01-01T00:0015785105-58.0
2008-01-01T00:0015794105-58.1
2008-01-01T00:0015820104-58.4
2008-01-01T00:0015832104-58.2
2008-01-01T00:0015837104-58.2
2008-01-01T00:0015864104-58.5
2008-01-01T00:0015874103-58.3
2008-01-01T00:0015879103-58.4111
2008-01-01T00:0015902103-58.8
2008-01-01T00:0015915103-58.6
2008-01-01T00:0015920103-58.7
2008-01-01T00:0015940102-59.0
2008-01-01T00:0015948102-58.8
2008-01-01T00:0015952102-58.9
2008-01-01T00:0015975102-59.0
2008-01-01T00:0015994101-58.9
2008-01-01T00:0016000101-59.0
2008-01-01T00:0016028101-59.1
2008-01-01T00:0016039101-58.5
2008-01-01T00:0016045101-58.5
2008-01-01T00:0016071100-58.7
2008-01-01T00:0016082100-58.6
2008-01-01T00:0016086100-58.5
2008-01-01T00:0016090100-58.7
2008-01-01T00:0016114100-58.9
2008-01-01T00:001612299-58.8
2008-01-01T00:001612699-58.9
2008-01-01T00:001615199-59.2
2008-01-01T00:001616499-59.1
2008-01-01T00:001617699-59.23495
2008-01-01T00:001620698-59.5
2008-01-01T00:001621698-59.4
2008-01-01T00:001622198-59.5
2008-01-01T00:001625097-59.6
2008-01-01T00:001626597-59.5
2008-01-01T00:001627297-59.7
2008-01-01T00:001630497-60.1
2008-01-01T00:001632196-60.0
2008-01-01T00:001632696-60.1
2008-01-01T00:001635296-60.5
2008-01-01T00:001636296-60.4
2008-01-01T00:001636796-60.5
2008-01-01T00:001638895-60.8
2008-01-01T00:001640095-60.7
2008-01-01T00:001640395-60.8
2008-01-01T00:001642595-61.1
2008-01-01T00:001643694-61.0
2008-01-01T00:001644194-61.1
2008-01-01T00:001646494-61.5
2008-01-01T00:001647594-61.3
2008-01-01T00:001647894-61.5
2008-01-01T00:001648294-61.53164
2008-01-01T00:001650094-61.8
2008-01-01T00:001651093-61.7
2008-01-01T00:001651693-61.8
2008-01-01T00:001654293-62.2
2008-01-01T00:001655293-62.0
2008-01-01T00:001656293-61.9
2008-01-01T00:001658992-62.0
2008-01-01T00:001659992-61.9
2008-01-01T00:001660592-62.0
2008-01-01T00:001662892-62.2
2008-01-01T00:001663592-62.0
2008-01-01T00:001664291-62.0
2008-01-01T00:001666191-62.1
2008-01-01T00:001666991-61.9
2008-01-01T00:001667391-62.0
2008-01-01T00:001669391-62.2
2008-01-01T00:001670291-62.0
2008-01-01T00:001670690-62.1
2008-01-01T00:001673290-62.2
2008-01-01T00:001674290-61.8
2008-01-01T00:001674690-62.0
2008-01-01T00:001675690-62.03256
2008-01-01T00:001677190-62.2
2008-01-01T00:001678189-61.9
2008-01-01T00:001678689-61.8
2008-01-01T00:001680889-62.1
2008-01-01T00:001681989-61.8
2008-01-01T00:001682289-61.8
2008-01-01T00:001684488-62.0
2008-01-01T00:001685588-61.8
2008-01-01T00:001686188-61.7
2008-01-01T00:001688588-61.8
2008-01-01T00:001689588-61.6
2008-01-01T00:001689888-61.7
2008-01-01T00:001691987-61.9
2008-01-01T00:001693187-61.7
2008-01-01T00:001693787-61.8
2008-01-01T00:001696187-61.8
2008-01-01T00:001696987-61.3
2008-01-01T00:001697687-61.4
2008-01-01T00:001699586-61.5
2008-01-01T00:001700286-61.3
2008-01-01T00:001700586-61.4
2008-01-01T00:001701786-61.63288
2008-01-01T00:001702586-61.7
2008-01-01T00:001703386-61.5
2008-01-01T00:001703786-61.6
2008-01-01T00:001706385-61.6
2008-01-01T00:001708385-61.2
2008-01-01T00:001708985-61.2
2008-01-01T00:001711685-61.4
2008-01-01T00:001712385-61.2
2008-01-01T00:001712785-61.2
2008-01-01T00:001714784-61.0
2008-01-01T00:001716184-60.6
2008-01-01T00:001716684-60.7
2008-01-01T00:001719084-60.5
2008-01-01T00:001720084-60.1
2008-01-01T00:001720583-60.2
2008-01-01T00:001723083-60.2
2008-01-01T00:001724083-59.8
2008-01-01T00:001724583-59.9
2008-01-01T00:001726683-59.9
2008-01-01T00:001727683-59.6
2008-01-01T00:001727982-59.7
2008-01-01T00:001729482-59.73289
2008-01-01T00:001729882-59.7
2008-01-01T00:001730782-59.3
2008-01-01T00:001731282-59.4
2008-01-01T00:001733882-59.6
2008-01-01T00:001735082-59.5
2008-01-01T00:001735581-59.6
2008-01-01T00:001738581-59.9
2008-01-01T00:001739281-59.7
2008-01-01T00:001739581-59.8
2008-01-01T00:001741281-60.0
2008-01-01T00:001741981-59.8
2008-01-01T00:001742381-59.9
2008-01-01T00:001744580-60.1
2008-01-01T00:001745880-59.9
2008-01-01T00:001747080-60.0
2008-01-01T00:001749980-60.0
2008-01-01T00:001751079-59.9
2008-01-01T00:001751579-60.0
2008-01-01T00:001753479-60.3
2008-01-01T00:001753679-60.2
2008-01-01T00:001753779-60.3
2008-01-01T00:001755279-60.2
2008-01-01T00:001755779-60.03387
2008-01-01T00:001756279-59.8
2008-01-01T00:001757379-59.5
2008-01-01T00:001759978-59.0
2008-01-01T00:001760978-58.3
2008-01-01T00:001761478-58.5
2008-01-01T00:001763678-58.3
2008-01-01T00:001764478-58.0
2008-01-01T00:001764878-57.9
2008-01-01T00:001766678-57.9
2008-01-01T00:001767377-57.4
2008-01-01T00:001768077-57.5
2008-01-01T00:001770377-57.6
2008-01-01T00:001771677-57.3
2008-01-01T00:001772277-57.3
2008-01-01T00:001775376-57.5
2008-01-01T00:001776476-57.4
2008-01-01T00:001777076-57.5
2008-01-01T00:001779476-57.8
2008-01-01T00:001780276-57.6
2008-01-01T00:001780676-57.7
2008-01-01T00:001782576-58.0
2008-01-01T00:001783475-57.8123
2008-01-01T00:001783775-57.9
2008-01-01T00:001785875-57.8
2008-01-01T00:001787075-57.4
2008-01-01T00:001787675-57.5
2008-01-01T00:001789975-57.6
2008-01-01T00:001790575-57.4
2008-01-01T00:001790875-57.5
2008-01-01T00:001793074-57.7
2008-01-01T00:001794374-57.5
2008-01-01T00:001794974-57.6
2008-01-01T00:001797774-57.8
2008-01-01T00:001798974-57.6
2008-01-01T00:001799374-57.6
2008-01-01T00:001801673-57.9
2008-01-01T00:001802773-57.7
2008-01-01T00:001803373-57.7
2008-01-01T00:001805973-57.9
2008-01-01T00:001806973-57.7
2008-01-01T00:001807473-57.8
2008-01-01T00:001809672-58.0
2008-01-01T00:001810472-57.8
2008-01-01T00:001810872-58.0
2008-01-01T00:001811772-58.1541
2008-01-01T00:001813172-58.3
2008-01-01T00:001814772-58.1
2008-01-01T00:001815272-58.3
2008-01-01T00:001817672-58.6
2008-01-01T00:001818471-58.4
2008-01-01T00:001818871-58.5
2008-01-01T00:001820971-58.8
2008-01-01T00:001821971-58.7
2008-01-01T00:001822471-58.8
2008-01-01T00:001824571-59.1
2008-01-01T00:001825171-59.0
2008-01-01T00:001825671-59.0
2008-01-01T00:001827470-59.3
2008-01-01T00:001828470-59.2
2008-01-01T00:001828870-59.3
2008-01-01T00:001830970-59.5
2008-01-01T00:001831570-59.6
2008-01-01T00:001832770-59.4
2008-01-01T00:001833470-59.5
2008-01-01T00:001836269-59.2
2008-01-01T00:001837269-59.0
2008-01-01T00:001837769-59.0
2008-01-01T00:001839769-59.13313
2008-01-01T00:001840269-59.2
2008-01-01T00:001841769-58.7
2008-01-01T00:001842269-58.8
2008-01-01T00:001844468-59.1
2008-01-01T00:001845168-58.8
2008-01-01T00:001845468-58.9
2008-01-01T00:001846868-59.1
2008-01-01T00:001847168-58.8
2008-01-01T00:001847368-58.9
2008-01-01T00:001849268-59.0
2008-01-01T00:001850668-58.9
2008-01-01T00:001851368-59.0
2008-01-01T00:001854267-59.2
2008-01-01T00:001855367-59.1
2008-01-01T00:001855667-59.2
2008-01-01T00:001857967-59.5
2008-01-01T00:001859167-59.4
2008-01-01T00:001859767-59.4
2008-01-01T00:001862367-59.7
2008-01-01T00:001863066-59.4
2008-01-01T00:001863466-59.5
2008-01-01T00:001865566-59.7
2008-01-01T00:001865966-59.53346
2008-01-01T00:001866366-59.3
2008-01-01T00:001866866-59.3
2008-01-01T00:001869066-59.1
2008-01-01T00:001870366-58.2
2008-01-01T00:001870766-58.3
2008-01-01T00:001872865-58.6
2008-01-01T00:001873765-58.5
2008-01-01T00:001874165-58.6
2008-01-01T00:001876365-58.9
2008-01-01T00:001877265-58.8
2008-01-01T00:001877765-58.8
2008-01-01T00:001880565-59.0
2008-01-01T00:001881965-58.6
2008-01-01T00:001882664-58.7
2008-01-01T00:001885364-58.8
2008-01-01T00:001885864-58.4
2008-01-01T00:001886364-58.5
2008-01-01T00:001888164-58.5
2008-01-01T00:001889164-58.3
2008-01-01T00:001889664-58.3
2008-01-01T00:001892263-58.4
2008-01-01T00:001893463-57.9
2008-01-01T00:001894063-58.03477
2008-01-01T00:001896863-58.0
2008-01-01T00:001897863-57.9
2008-01-01T00:001898363-57.7
2008-01-01T00:001900363-57.8
2008-01-01T00:001900763-57.5
2008-01-01T00:001900963-57.6
2008-01-01T00:001903162-57.9
2008-01-01T00:001904662-57.7
2008-01-01T00:001906162-57.8
2008-01-01T00:001909162-57.9
2008-01-01T00:001909862-57.6
2008-01-01T00:001910162-57.7
2008-01-01T00:001912162-57.9
2008-01-01T00:001913061-57.6
2008-01-01T00:001913561-57.7
2008-01-01T00:001916061-58.0
2008-01-01T00:001916961-57.8
2008-01-01T00:001917461-57.9
2008-01-01T00:001919961-58.2
2008-01-01T00:001920961-57.9
2008-01-01T00:001921461-58.1
2008-01-01T00:001922860-58.13547
2008-01-01T00:001923760-58.1
2008-01-01T00:001924460-57.8
2008-01-01T00:001924860-58.0
2008-01-01T00:001927060-57.7
2008-01-01T00:001928660-57.4
2008-01-01T00:001929160-57.5
2008-01-01T00:001931860-57.7
2008-01-01T00:001932960-57.6
2008-01-01T00:001933559-57.7
2008-01-01T00:001936159-58.0
2008-01-01T00:001937259-57.9
2008-01-01T00:001937759-58.0
2008-01-01T00:001940359-58.3
2008-01-01T00:001941359-58.2
2008-01-01T00:001941859-58.3
2008-01-01T00:001944058-58.5
2008-01-01T00:001944758-58.2
2008-01-01T00:001945058-58.3
2008-01-01T00:001946858-58.6
2008-01-01T00:001947858-58.4
2008-01-01T00:001948758-58.6
2008-01-01T00:001950858-58.9
2008-01-01T00:001951558-58.93436
2008-01-01T00:001952958-58.8
2008-01-01T00:001953658-58.9
2008-01-01T00:001956857-59.2
2008-01-01T00:001957757-59.1
2008-01-01T00:001958257-59.2
2008-01-01T00:001960657-59.4
2008-01-01T00:001961657-59.2
2008-01-01T00:001962057-59.3
2008-01-01T00:001964857-59.7
2008-01-01T00:001966256-59.6
2008-01-01T00:001966956-59.7
2008-01-01T00:001969856-59.9
2008-01-01T00:001970756-59.6
2008-01-01T00:001971156-59.8
2008-01-01T00:001973456-60.0
2008-01-01T00:001975056-59.8
2008-01-01T00:001975556-59.7
2008-01-01T00:001978155-59.9
2008-01-01T00:001979055-59.7
2008-01-01T00:001979455-59.8
2008-01-01T00:001981655-59.8
2008-01-01T00:001982555-59.5
2008-01-01T00:001982955-59.63426
2008-01-01T00:001985555-59.5
2008-01-01T00:001986855-59.3
2008-01-01T00:001987455-59.4
2008-01-01T00:001990754-59.3
2008-01-01T00:001992054-59.1
2008-01-01T00:001992754-59.2
2008-01-01T00:001995554-59.3
2008-01-01T00:001996454-59.1
2008-01-01T00:001996954-59.2
2008-01-01T00:001999154-59.5
2008-01-01T00:002000553-59.3
2008-01-01T00:002001053-59.4
2008-01-01T00:002003553-59.7
2008-01-01T00:002004653-59.6
2008-01-01T00:002005153-59.8
2008-01-01T00:002007353-60.1
2008-01-01T00:002007953-60.0
2008-01-01T00:002008253-60.1
2008-01-01T00:002010253-60.5
2008-01-01T00:002011352-60.3
2008-01-01T00:002011952-60.4
2008-01-01T00:002013652-60.63575
2008-01-01T00:002014852-60.8
2008-01-01T00:002016052-60.6
2008-01-01T00:002016652-60.7
2008-01-01T00:002019452-60.9
2008-01-01T00:002020352-60.5
2008-01-01T00:002021252-60.5
2008-01-01T00:002023651-60.7
2008-01-01T00:002024651-60.4
2008-01-01T00:002025151-60.5
2008-01-01T00:002027251-60.7
2008-01-01T00:002027951-60.5
2008-01-01T00:002028251-60.6
2008-01-01T00:002030451-60.8
2008-01-01T00:002031651-60.6
2008-01-01T00:002032251-60.7
2008-01-01T00:002034751-61.0
2008-01-01T00:002035450-60.8
2008-01-01T00:002035850-60.9
2008-01-01T00:002038050-61.2
2008-01-01T00:002039350-61.0
2008-01-01T00:002039950-61.1
2008-01-01T00:002041750-61.3
2008-01-01T00:002042350-61.4
2008-01-01T00:002042650-61.33522
2008-01-01T00:002042950-61.2
2008-01-01T00:002043650-61.3
2008-01-01T00:002044950-61.6
2008-01-01T00:002045250-61.4
2008-01-01T00:002045450-61.4
2008-01-01T00:002047050-61.6
2008-01-01T00:002048149-61.4
2008-01-01T00:002048649-61.4
2008-01-01T00:002051949-61.7
2008-01-01T00:002053549-61.5
2008-01-01T00:002054349-61.6
2008-01-01T00:002057949-61.8
2008-01-01T00:002059149-61.6
2008-01-01T00:002059749-61.7
2008-01-01T00:002062448-61.6
2008-01-01T00:002063248-61.2
2008-01-01T00:002063648-61.2
2008-01-01T00:002066148-61.4
2008-01-01T00:002067448-61.2
2008-01-01T00:002068648-61.3
2008-01-01T00:002071248-61.6
2008-01-01T00:002071948-61.5
2008-01-01T00:002072248-61.52930
2008-01-01T00:002074447-61.9
2008-01-01T00:002075547-61.7
2008-01-01T00:002076147-61.9
2008-01-01T00:002078547-62.2
2008-01-01T00:002079347-62.1
2008-01-01T00:002079647-62.3
2008-01-01T00:002082147-62.5
2008-01-01T00:002083547-62.4
2008-01-01T00:002084247-62.5
2008-01-01T00:002086746-62.7
2008-01-01T00:002087246-62.2
2008-01-01T00:002087546-62.3
2008-01-01T00:002089346-62.1
2008-01-01T00:002090246-61.6
2008-01-01T00:002091246-61.7
2008-01-01T00:002094546-61.9
2008-01-01T00:002096446-61.6
2008-01-01T00:002097346-61.6
2008-01-01T00:002100845-61.2
2008-01-01T00:002101445-60.6
2008-01-01T00:002101745-60.8
2008-01-01T00:002102645-60.82461
2008-01-01T00:002103245-60.8
2008-01-01T00:002103845-60.6
2008-01-01T00:002104145-60.7
2008-01-01T00:002106845-60.6
2008-01-01T00:002108645-60.1
2008-01-01T00:002109545-60.2
2008-01-01T00:002113345-60.4
2008-01-01T00:002114444-60.1
2008-01-01T00:002115044-60.1
2008-01-01T00:002117844-60.2
2008-01-01T00:002118944-60.0
2008-01-01T00:002119544-60.1
2008-01-01T00:002122144-60.2
2008-01-01T00:002123144-59.9
2008-01-01T00:002123644-60.0
2008-01-01T00:002125344-60.3
2008-01-01T00:002125744-60.2
2008-01-01T00:002126044-60.3
2008-01-01T00:002127644-60.5
2008-01-01T00:002130843-60.4
2008-01-01T00:002131943-60.5
2008-01-01T00:002136143-60.8
2008-01-01T00:002136543-60.72633
2008-01-01T00:002137043-60.6
2008-01-01T00:002137443-60.8
2008-01-01T00:002139743-61.1
2008-01-01T00:002140743-60.9
2008-01-01T00:002141343-61.0
2008-01-01T00:002143642-61.4
2008-01-01T00:002144542-61.1
2008-01-01T00:002144942-61.2
2008-01-01T00:002146842-61.1
2008-01-01T00:002147542-61.0
2008-01-01T00:002147842-61.0
2008-01-01T00:002150742-61.3
2008-01-01T00:002152542-61.1
2008-01-01T00:002153442-61.2
2008-01-01T00:002157242-61.5
2008-01-01T00:002158241-61.3
2008-01-01T00:002158741-61.4
2008-01-01T00:002161341-61.6
2008-01-01T00:002162341-61.5
2008-01-01T00:002162841-61.5
2008-01-01T00:002164541-61.5
2008-01-01T00:002164841-61.0
2008-01-01T00:002164941-61.1
2008-01-01T00:002165641-61.22802
2008-01-01T00:002166741-61.2
2008-01-01T00:002168141-61.1
2008-01-01T00:002169641-61.2
2008-01-01T00:002172540-61.5
2008-01-01T00:002174640-61.3
2008-01-01T00:002175340-61.4
2008-01-01T00:002178840-61.5
2008-01-01T00:002180240-61.0
2008-01-01T00:002180840-61.1
2008-01-01T00:002183440-61.1
2008-01-01T00:002184040-60.9
2008-01-01T00:002184340-61.0
2008-01-01T00:002186340-61.0
2008-01-01T00:002187440-60.8
2008-01-01T00:002188039-60.9
2008-01-01T00:002190739-61.0
2008-01-01T00:002191639-60.8
2008-01-01T00:002192139-60.9
2008-01-01T00:002194339-60.9
2008-01-01T00:002195139-60.5
2008-01-01T00:002195539-60.6
2008-01-01T00:002197939-60.92851
2008-01-01T00:002198939-60.7
2008-01-01T00:002199539-60.8
2008-01-01T00:002202139-61.0
2008-01-01T00:002203239-60.8
2008-01-01T00:002203739-60.9
2008-01-01T00:002205638-60.9
2008-01-01T00:002205938-60.8
2008-01-01T00:002206038-60.8
2008-01-01T00:002208338-60.7
2008-01-01T00:002210138-60.4
2008-01-01T00:002211038-60.5
2008-01-01T00:002214338-60.7
2008-01-01T00:002214938-60.4
2008-01-01T00:002215238-60.5
2008-01-01T00:002217438-60.6
2008-01-01T00:002218738-60.1
2008-01-01T00:002219438-60.2
2008-01-01T00:002221537-60.1
2008-01-01T00:002221737-59.7
2008-01-01T00:002221837-59.8
2008-01-01T00:002223937-60.0
2008-01-01T00:002225737-59.6
2008-01-01T00:002226737-59.5
2008-01-01T00:002227337-59.62551
2008-01-01T00:002230137-59.7
2008-01-01T00:002230737-59.5
2008-01-01T00:002231037-59.6
2008-01-01T00:002232837-59.7
2008-01-01T00:002233637-59.5
2008-01-01T00:002234037-59.5
2008-01-01T00:002236837-59.6
2008-01-01T00:002238536-59.2
2008-01-01T00:002239336-58.8
2008-01-01T00:002242036-59.1
2008-01-01T00:002242236-58.8
2008-01-01T00:002242336-58.9
2008-01-01T00:002244236-59.1
2008-01-01T00:002245736-58.8
2008-01-01T00:002246536-58.8
2008-01-01T00:002249236-58.8
2008-01-01T00:002249636-58.6
2008-01-01T00:002249836-58.7
2008-01-01T00:002252236-58.9
2008-01-01T00:002254136-58.5
2008-01-01T00:002255035-58.7
2008-01-01T00:002257535-58.92162
2008-01-01T00:002258535-58.7
2008-01-01T00:002260635-58.5
2008-01-01T00:002261635-58.7
2008-01-01T00:002264935-59.0
2008-01-01T00:002265035-58.5
2008-01-01T00:002265135-58.7
2008-01-01T00:002267235-58.8
2008-01-01T00:002269035-58.6
2008-01-01T00:002269935-58.7
2008-01-01T00:002273934-59.0
2008-01-01T00:002275234-58.8
2008-01-01T00:002275834-58.9
2008-01-01T00:002277734-59.0
2008-01-01T00:002279034-58.8
2008-01-01T00:002280534-58.5
2008-01-01T00:002281234-58.6
2008-01-01T00:002284134-58.5
2008-01-01T00:002284834-58.3
2008-01-01T00:002285134-58.4
2008-01-01T00:002285734-58.41863
2008-01-01T00:002287934-58.5
2008-01-01T00:002289834-58.4
2008-01-01T00:002290734-58.5
2008-01-01T00:002294233-58.6
2008-01-01T00:002294933-58.4
2008-01-01T00:002295233-58.4
2008-01-01T00:002296433-58.6
2008-01-01T00:002296733-58.2
2008-01-01T00:002296833-58.3
2008-01-01T00:002298633-58.5
2008-01-01T00:002300033-58.4
2008-01-01T00:002300733-58.5
2008-01-01T00:002304533-58.6
2008-01-01T00:002306233-58.4
2008-01-01T00:002307133-58.5
2008-01-01T00:002309433-58.8
2008-01-01T00:002310532-58.8
2008-01-01T00:002312332-58.5
2008-01-01T00:002313232-58.6
2008-01-01T00:002316732-58.81804
2008-01-01T00:002317632-58.6
2008-01-01T00:002318132-58.5
2008-01-01T00:002319632-58.6
2008-01-01T00:002319832-58.4
2008-01-01T00:002319932-58.6
2008-01-01T00:002321032-58.6
2008-01-01T00:002322032-58.4
2008-01-01T00:002322432-58.5
2008-01-01T00:002324732-58.8
2008-01-01T00:002326432-58.5
2008-01-01T00:002328032-58.7
2008-01-01T00:002331531-58.9
2008-01-01T00:002333431-58.8
2008-01-01T00:002334431-59.0
2008-01-01T00:002338231-59.2
2008-01-01T00:002339131-58.9
2008-01-01T00:002339631-59.0
2008-01-01T00:002342131-59.3
2008-01-01T00:002343231-59.1
2008-01-01T00:002343731-59.2
2008-01-01T00:002346631-59.5
2008-01-01T00:002347931-59.4
2008-01-01T00:002348531-59.5
2008-01-01T00:002349431-59.52004
2008-01-01T00:002350830-59.6
2008-01-01T00:002351130-59.3
2008-01-01T00:002351330-59.5
2008-01-01T00:002353430-59.5
2008-01-01T00:002355130-59.3
2008-01-01T00:002355930-59.4
2008-01-01T00:002358630-59.7
2008-01-01T00:002358930-59.5
2008-01-01T00:002359030-59.5
2008-01-01T00:002360130-59.6
2008-01-01T00:002361430-59.7
2008-01-01T00:002363430-59.5
2008-01-01T00:002364330-59.7
2008-01-01T00:002367630-60.0
2008-01-01T00:002367930-59.7
2008-01-01T00:002368030-59.8
2008-01-01T00:002370230-60.0
2008-01-01T00:002371929-59.7
2008-01-01T00:002372829-59.8
2008-01-01T00:002376429-60.1
2008-01-01T00:002377429-59.9
2008-01-01T00:002378029-60.0
2008-01-01T00:002379529-60.2
2008-01-01T00:002379729-60.4
2008-01-01T00:002380329-60.2
2008-01-01T00:002380629-60.3
2008-01-01T00:002382629-60.5
2008-01-01T00:002383729-60.3
2008-01-01T00:002384229-60.5
2008-01-01T00:002386529-60.7
2008-01-01T00:002387929-60.5
2008-01-01T00:002389229-60.5
2008-01-01T00:002391629-60.8
2008-01-01T00:002392328-60.6
2008-01-01T00:002393028-60.7
2008-01-01T00:002395228-60.7
2008-01-01T00:002397428-60.5
2008-01-01T00:002398528-60.6
2008-01-01T00:002402428-60.8
2008-01-01T00:002403028-60.5
2008-01-01T00:002403328-60.7
2008-01-01T00:002404928-60.9
2008-01-01T00:002405628-60.6
2008-01-01T00:002405928-60.7
2008-01-01T00:002407628-60.82847
2008-01-01T00:002408828-60.9
2008-01-01T00:002410628-60.7
2008-01-01T00:002411528-60.8
2008-01-01T00:002415327-61.0
2008-01-01T00:002416327-60.7
2008-01-01T00:002416727-60.8
2008-01-01T00:002418827-60.9
2008-01-01T00:002419427-60.7
2008-01-01T00:002419727-60.7
2008-01-01T00:002422227-60.7
2008-01-01T00:002423827-60.5
2008-01-01T00:002424627-60.6
2008-01-01T00:002427627-60.3
2008-01-01T00:002428327-60.0
2008-01-01T00:002428627-60.2
2008-01-01T00:002431227-60.4
2008-01-01T00:002432827-60.1
2008-01-01T00:002433627-60.2
2008-01-01T00:002436527-60.4
2008-01-01T00:002437027-60.1
2008-01-01T00:002437326-60.2
2008-01-01T00:002439626-60.4
2008-01-01T00:002441026-60.13089
2008-01-01T00:002441826-60.3
2008-01-01T00:002444426-60.6
2008-01-01T00:002445226-60.4
2008-01-01T00:002445926-60.4
2008-01-01T00:002448226-60.6
2008-01-01T00:002450326-60.2
2008-01-01T00:002451326-60.2
2008-01-01T00:002454926-60.5
2008-01-01T00:002455326-60.2
2008-01-01T00:002455426-60.3
2008-01-01T00:002457826-60.5
2008-01-01T00:002459526-60.2
2008-01-01T00:002460426-60.3
2008-01-01T00:002463725-60.5
2008-01-01T00:002464425-60.3
2008-01-01T00:002464725-60.3
2008-01-01T00:002467025-60.5
2008-01-01T00:002468225-60.3
2008-01-01T00:002468825-60.4
2008-01-01T00:002471825-60.7
2008-01-01T00:002472925-60.5
2008-01-01T00:002473525-60.7
2008-01-01T00:002475425-60.83239
2008-01-01T00:002475925-60.8
2008-01-01T00:002476725-60.6
2008-01-01T00:002477025-60.8
2008-01-01T00:002479125-61.1
2008-01-01T00:002480025-60.8
2008-01-01T00:002480525-60.8
2008-01-01T00:002481825-60.9
2008-01-01T00:002482225-61.0
2008-01-01T00:002483725-60.7
2008-01-01T00:002484525-60.8
2008-01-01T00:002488324-61.0
2008-01-01T00:002490024-60.8
2008-01-01T00:002490824-60.9
2008-01-01T00:002494624-61.1
2008-01-01T00:002495824-60.7
2008-01-01T00:002496424-60.8
2008-01-01T00:002499424-60.9
2008-01-01T00:002500624-60.7
2008-01-01T00:002501224-60.8
2008-01-01T00:002504224-60.9
2008-01-01T00:002505524-60.5
2008-01-01T00:002506224-60.7
2008-01-01T00:002506824-60.73348
2008-01-01T00:002509024-60.8
2008-01-01T00:002509924-60.6
2008-01-01T00:002510324-60.8
2008-01-01T00:002512423-61.1
2008-01-01T00:002513223-60.8
2008-01-01T00:002513623-61.0
2008-01-01T00:002515523-61.3
2008-01-01T00:002516223-61.1
2008-01-01T00:002516623-61.2
2008-01-01T00:002518123-61.5
2008-01-01T00:002518923-61.2
2008-01-01T00:002519723-61.3
2008-01-01T00:002521723-61.6

Only the first 2000 rows were shown. To view the complete dataset, download it as tab-delimited text. You can still view the full matrix in your browser, but be aware that this may crash the browser due to the huge size.